createdAt,value
2023-10-10T00:00:11.814Z,14.07
2023-10-10T00:03:15.744Z,14.43
2023-10-10T00:06:19.769Z,14.03
2023-10-10T00:09:24.855Z,13.07
2023-10-10T00:12:30.359Z,13.33
2023-10-10T00:15:39.639Z,14.10
2023-10-10T00:18:44.775Z,13.00
2023-10-10T00:21:50.137Z,12.93
2023-10-10T00:24:55.135Z,12.23
2023-10-10T00:28:01.268Z,10.83
2023-10-10T00:31:09.832Z,11.63
2023-10-10T00:34:40.867Z,14.37
2023-10-10T00:37:46.075Z,12.60
2023-10-10T00:40:50.807Z,13.60
2023-10-10T00:43:54.552Z,13.13
2023-10-10T00:46:59.239Z,12.70
2023-10-10T00:50:02.401Z,13.63
2023-10-10T00:53:12.893Z,12.60
2023-10-10T00:56:17.561Z,12.27
2023-10-10T00:59:21.317Z,12.00
2023-10-10T01:02:25.053Z,12.87
2023-10-10T01:05:40.779Z,12.27
2023-10-10T01:08:52.079Z,12.13
2023-10-10T01:11:56.865Z,12.00
2023-10-10T01:15:08.546Z,13.03
2023-10-10T01:18:16.616Z,10.90
2023-10-10T01:21:31.869Z,12.50
2023-10-10T01:24:35.104Z,10.97
2023-10-10T01:27:40.776Z,10.90
2023-10-10T01:30:58.856Z,9.53
2023-10-10T01:34:02.086Z,9.67
2023-10-10T01:37:08.965Z,9.57
2023-10-10T01:40:14.456Z,9.00
2023-10-10T01:43:18.308Z,8.43
2023-10-10T01:46:29.019Z,8.20
2023-10-10T01:49:33.171Z,9.33
2023-10-10T01:52:42.455Z,8.30
2023-10-10T01:55:48.777Z,8.03
2023-10-10T01:58:55.087Z,8.90
2023-10-10T02:01:59.077Z,7.70
2023-10-10T02:05:04.753Z,7.63
2023-10-10T02:08:12.987Z,8.97
2023-10-10T02:11:16.206Z,8.27
2023-10-10T02:14:20.306Z,8.17
2023-10-10T02:17:26.509Z,8.40
2023-10-10T02:20:51.040Z,8.30
2023-10-10T02:24:01.011Z,7.27
2023-10-10T02:27:06.525Z,8.57
2023-10-10T02:30:13.641Z,8.83
2023-10-10T02:33:25.587Z,9.10
2023-10-10T02:36:36.102Z,9.20
2023-10-10T02:39:56.469Z,9.30
2023-10-10T02:43:19.933Z,10.27
2023-10-10T02:46:34.860Z,8.30
2023-10-10T02:49:39.305Z,10.33
2023-10-10T02:52:50.825Z,10.47
2023-10-10T02:56:02.651Z,9.20
2023-10-10T02:59:06.554Z,8.90
2023-10-10T03:02:11.592Z,9.93
2023-10-10T03:05:18.278Z,9.20
2023-10-10T03:08:35.725Z,9.90
2023-10-10T03:11:54.213Z,9.70
2023-10-10T03:15:13.780Z,8.63
2023-10-10T03:18:29.659Z,9.63
2023-10-10T03:21:46.188Z,10.57
2023-10-10T03:25:08.553Z,10.50
2023-10-10T03:28:21.952Z,13.67
2023-10-10T03:31:32.824Z,10.70
2023-10-10T03:34:45.737Z,11.53
2023-10-10T03:37:55.977Z,11.67
2023-10-10T03:41:21.862Z,9.60
2023-10-10T03:44:44.155Z,9.80
2023-10-10T03:48:04.677Z,13.93
2023-10-10T03:51:27.720Z,14.23
2023-10-10T03:54:48.279Z,12.20
2023-10-10T03:58:08.865Z,13.93
2023-10-10T04:01:30.705Z,10.77
2023-10-10T04:04:51.461Z,13.40
2023-10-10T04:08:12.457Z,11.33
2023-10-10T04:11:34.365Z,11.77
2023-10-10T04:14:54.999Z,10.53
2023-10-10T04:18:17.620Z,10.87
2023-10-10T04:21:38.303Z,10.83
2023-10-10T04:25:02.179Z,11.93
2023-10-10T04:28:24.014Z,12.23
2023-10-10T04:31:44.411Z,10.97
2023-10-10T04:35:06.061Z,12.30
2023-10-10T04:38:27.097Z,10.90
2023-10-10T04:41:47.342Z,10.80
2023-10-10T04:45:09.650Z,10.07
2023-10-10T04:48:30.225Z,12.07
2023-10-10T04:51:52.638Z,10.93
2023-10-10T04:55:13.031Z,10.47
2023-10-10T04:58:45.263Z,12.53
2023-10-10T05:02:02.245Z,11.37
2023-10-10T05:05:23.562Z,10.00
2023-10-10T05:08:45.259Z,9.60
2023-10-10T05:12:05.909Z,16.00
2023-10-10T05:15:26.773Z,13.77
2023-10-10T05:18:49.457Z,12.07
2023-10-10T05:22:11.508Z,11.43
2023-10-10T05:25:24.206Z,11.40
2023-10-10T05:28:31.212Z,12.73
2023-10-10T05:31:34.321Z,11.13
2023-10-10T05:34:38.354Z,13.83
2023-10-10T05:37:41.857Z,11.40
2023-10-10T05:40:48.365Z,14.70
2023-10-10T05:43:51.797Z,13.50
2023-10-10T05:46:55.197Z,14.93
2023-10-10T05:49:58.748Z,13.60
2023-10-10T05:53:04.791Z,16.97
2023-10-10T05:56:18.777Z,13.53
2023-10-10T05:59:24.948Z,11.90
2023-10-10T06:02:28.546Z,11.17
2023-10-10T06:05:31.792Z,12.10
2023-10-10T06:08:37.348Z,13.40
2023-10-10T06:11:41.918Z,18.07
2023-10-10T06:14:45.059Z,11.27
2023-10-10T06:17:49.799Z,13.47
2023-10-10T06:21:08.758Z,16.40
2023-10-10T06:24:14.480Z,12.77
2023-10-10T06:27:21.795Z,11.80
2023-10-10T06:30:25.855Z,11.03
2023-10-10T06:33:29.946Z,10.67
2023-10-10T06:36:38.513Z,9.00
2023-10-10T06:39:55.514Z,10.60
2023-10-10T06:43:03.372Z,7.93
2023-10-10T06:46:07.154Z,11.83
2023-10-10T06:49:13.380Z,9.03
2023-10-10T06:52:20.238Z,8.33
2023-10-10T06:55:24.363Z,8.30
2023-10-10T06:58:34.759Z,8.20
2023-10-10T07:01:41.127Z,8.63
2023-10-10T07:04:44.198Z,8.77
2023-10-10T07:07:53.314Z,8.47
2023-10-10T07:10:56.551Z,7.37
2023-10-10T07:14:01.269Z,7.73
2023-10-10T07:17:12.506Z,6.87
2023-10-10T07:20:32.913Z,7.80
2023-10-10T07:23:40.443Z,8.07
2023-10-10T07:26:59.630Z,7.50
2023-10-10T07:30:17.617Z,8.40
2023-10-10T07:33:24.852Z,8.63
2023-10-10T07:36:29.347Z,8.27
2023-10-10T07:39:37.114Z,7.97
2023-10-10T07:42:40.203Z,7.87
2023-10-10T07:45:45.613Z,10.23
2023-10-10T07:48:47.677Z,10.07
2023-10-10T07:51:51.041Z,8.10
2023-10-10T07:54:55.024Z,7.60
2023-10-10T07:58:00.412Z,8.50
2023-10-10T08:01:10.853Z,7.77
2023-10-10T08:04:18.112Z,8.43
2023-10-10T08:07:21.888Z,9.63
2023-10-10T08:10:39.371Z,8.67
2023-10-10T08:13:49.809Z,8.97
2023-10-10T08:17:00.662Z,9.17
2023-10-10T08:20:24.362Z,8.20
2023-10-10T08:23:28.541Z,8.03
2023-10-10T08:26:40.281Z,8.90
2023-10-10T08:29:43.551Z,7.97
2023-10-10T08:32:49.850Z,7.23
2023-10-10T08:35:53.094Z,6.90
2023-10-10T08:38:58.370Z,7.80
2023-10-10T08:42:06.480Z,6.53
2023-10-10T08:45:23.545Z,7.00
2023-10-10T08:48:29.744Z,6.73
2023-10-10T08:51:35.468Z,5.53
2023-10-10T08:54:42.184Z,6.83
2023-10-10T08:57:47.026Z,6.70
2023-10-10T09:00:50.422Z,5.73
2023-10-10T09:03:58.722Z,5.30
2023-10-10T09:07:09.780Z,5.70
2023-10-10T09:10:16.178Z,5.50
2023-10-10T09:13:19.996Z,5.10
2023-10-10T09:16:43.406Z,4.80
2023-10-10T09:19:48.953Z,5.07
2023-10-10T09:22:53.809Z,4.87
2023-10-10T09:26:20.357Z,5.17
2023-10-10T09:29:33.651Z,5.83
2023-10-10T09:32:43.809Z,5.03
2023-10-10T09:35:50.082Z,5.13
2023-10-10T09:38:58.755Z,4.33
2023-10-10T09:42:07.759Z,5.43
2023-10-10T09:45:28.286Z,4.63
2023-10-10T09:48:54.998Z,5.30
2023-10-10T09:52:14.234Z,4.60
2023-10-10T09:55:40.318Z,4.43
2023-10-10T09:58:46.057Z,4.27
2023-10-10T10:01:49.702Z,4.07
2023-10-10T10:04:55.110Z,3.90
2023-10-10T10:08:07.873Z,5.20
2023-10-10T10:11:15.756Z,4.30
2023-10-10T10:14:29.743Z,3.50
2023-10-10T10:17:48.578Z,5.87
2023-10-10T10:21:06.883Z,4.30
2023-10-10T10:24:17.884Z,4.47
2023-10-10T10:27:25.904Z,3.77
2023-10-10T10:30:48.025Z,4.50
2023-10-10T10:34:07.883Z,4.10
2023-10-10T10:37:21.051Z,4.60
2023-10-10T10:40:42.802Z,3.83
2023-10-10T10:43:51.171Z,4.60
2023-10-10T10:46:58.229Z,4.90
2023-10-10T10:50:04.082Z,4.80
2023-10-10T10:53:09.777Z,4.87
2023-10-10T10:56:32.963Z,4.97
2023-10-10T10:59:40.706Z,5.30
2023-10-10T11:02:51.115Z,5.77
2023-10-10T11:05:57.195Z,4.73
2023-10-10T11:09:10.908Z,5.63
2023-10-10T11:12:15.715Z,4.90
2023-10-10T11:15:20.313Z,5.37
2023-10-10T11:18:35.949Z,5.17
2023-10-10T11:21:48.621Z,4.33
2023-10-10T11:24:58.959Z,5.63
2023-10-10T11:28:05.357Z,4.77
2023-10-10T11:31:08.919Z,5.03
2023-10-10T11:34:27.202Z,6.53
2023-10-10T11:37:36.123Z,5.47
2023-10-10T11:40:39.170Z,5.00
2023-10-10T11:44:13.982Z,5.33
2023-10-10T11:47:25.718Z,5.37
2023-10-10T11:50:45.468Z,5.33
2023-10-10T11:53:48.528Z,7.60
2023-10-10T11:56:51.585Z,4.63
2023-10-10T11:59:56.018Z,4.43
2023-10-10T12:02:59.256Z,4.80
2023-10-10T12:06:02.508Z,4.40
2023-10-10T12:09:05.880Z,5.57
2023-10-10T12:12:10.933Z,5.63
2023-10-10T12:15:20.851Z,4.27
2023-10-10T12:18:24.174Z,3.53
2023-10-10T12:21:27.703Z,7.50
2023-10-10T12:24:30.729Z,4.10
2023-10-10T12:27:33.744Z,4.00
2023-10-10T12:30:41.704Z,4.70
2023-10-10T12:33:46.771Z,5.97
2023-10-10T12:36:50.456Z,4.30
2023-10-10T12:39:53.787Z,4.13
2023-10-10T12:42:57.330Z,4.27
2023-10-10T12:46:05.760Z,4.63
2023-10-10T12:49:12.713Z,5.20
2023-10-10T12:52:18.446Z,6.33
2023-10-10T12:55:26.724Z,5.00
2023-10-10T12:58:31.558Z,4.37
2023-10-10T13:01:37.157Z,4.30
2023-10-10T13:04:40.305Z,3.27
2023-10-10T13:07:44.712Z,3.37
2023-10-10T13:10:55.579Z,3.70
2023-10-10T13:14:00.690Z,3.47
2023-10-10T13:17:21.708Z,3.40
2023-10-10T13:20:25.391Z,3.27
2023-10-10T13:23:28.568Z,3.13
2023-10-10T13:26:32.948Z,3.43
2023-10-10T13:29:37.809Z,5.40
2023-10-10T13:32:43.162Z,3.57
2023-10-10T13:35:46.561Z,2.90
2023-10-10T13:38:51.822Z,3.80
2023-10-10T13:41:57.921Z,3.53
2023-10-10T13:45:12.197Z,3.53
2023-10-10T13:48:19.362Z,3.47
2023-10-10T13:51:22.959Z,3.97
2023-10-10T13:54:27.809Z,4.07
2023-10-10T13:57:30.899Z,3.50
2023-10-10T14:00:37.418Z,7.00
2023-10-10T14:03:46.985Z,3.47
2023-10-10T14:06:50.253Z,4.03
2023-10-10T14:10:03.038Z,3.57
2023-10-10T14:13:21.145Z,3.40
2023-10-10T14:16:25.442Z,4.03
2023-10-10T14:19:33.933Z,3.53
2023-10-10T14:22:49.874Z,4.13
2023-10-10T14:26:13.957Z,3.97
2023-10-10T14:29:18.534Z,4.60
2023-10-10T14:32:37.475Z,4.07
2023-10-10T14:35:45.078Z,4.30
2023-10-10T14:38:51.093Z,3.97
2023-10-10T14:41:54.247Z,3.10
2023-10-10T14:44:57.301Z,3.60
2023-10-10T14:48:00.658Z,3.90
2023-10-10T14:51:06.713Z,3.60
2023-10-10T14:54:13.301Z,3.80
2023-10-10T14:57:25.674Z,3.80
2023-10-10T15:00:30.423Z,3.90
2023-10-10T15:03:42.469Z,4.00
2023-10-10T15:06:48.465Z,3.93
2023-10-10T15:09:51.745Z,3.83
2023-10-10T15:12:55.067Z,4.03
2023-10-10T15:15:58.111Z,4.17
2023-10-10T15:19:03.121Z,3.63
2023-10-10T15:22:13.707Z,4.97
2023-10-10T15:25:16.933Z,4.20
2023-10-10T15:28:20.148Z,3.93
2023-10-10T15:31:28.080Z,4.27
2023-10-10T15:34:32.215Z,4.13
2023-10-10T15:37:43.333Z,4.77
2023-10-10T15:40:46.496Z,4.40
2023-10-10T15:43:50.524Z,4.80
2023-10-10T15:46:59.665Z,4.37
2023-10-10T15:50:03.357Z,6.27
2023-10-10T15:53:07.843Z,5.67
2023-10-10T15:56:17.174Z,6.67
2023-10-10T15:59:23.746Z,6.87
2023-10-10T16:02:40.802Z,6.57
2023-10-10T16:05:44.536Z,6.90
2023-10-10T16:08:50.782Z,7.67
2023-10-10T16:11:55.613Z,6.40
2023-10-10T16:15:01.519Z,8.03
2023-10-10T16:18:05.594Z,7.80
2023-10-10T16:21:09.831Z,8.70
2023-10-10T16:24:15.999Z,8.20
2023-10-10T16:27:19.624Z,7.20
2023-10-10T16:30:23.359Z,7.63
2023-10-10T16:33:27.545Z,7.20
2023-10-10T16:36:30.947Z,6.03
2023-10-10T16:39:36.578Z,5.03
2023-10-10T16:42:40.383Z,5.63
2023-10-10T16:45:44.729Z,6.07
2023-10-10T16:48:48.943Z,6.07
2023-10-10T16:51:55.675Z,8.13
2023-10-10T16:55:01.060Z,8.17
2023-10-10T16:58:04.565Z,9.53
2023-10-10T17:04:28.321Z,6.60
2023-10-10T17:07:32.097Z,8.60
2023-10-10T17:10:38.288Z,8.13
2023-10-10T17:13:44.927Z,8.50
2023-10-10T17:16:48.519Z,8.07
2023-10-10T17:19:53.835Z,9.57
2023-10-10T17:23:00.862Z,11.30
2023-10-10T17:26:09.411Z,9.30
2023-10-10T17:36:21.619Z,9.10
2023-10-10T17:39:30.221Z,10.03
2023-10-10T17:42:36.225Z,9.27
2023-10-10T17:45:44.270Z,9.30
2023-10-10T17:48:48.808Z,9.83
2023-10-10T17:51:54.660Z,9.47
2023-10-10T17:54:59.243Z,9.70
2023-10-10T17:58:04.647Z,9.67
2023-10-10T18:01:11.327Z,10.93
2023-10-10T18:04:16.762Z,11.50
2023-10-10T18:07:23.548Z,12.83
2023-10-10T18:10:31.479Z,11.50
2023-10-10T18:13:36.818Z,10.40
2023-10-10T18:16:41.087Z,10.30
2023-10-10T18:19:44.816Z,10.77
2023-10-10T18:22:49.792Z,10.27
2023-10-10T18:25:53.488Z,11.40
2023-10-10T18:28:58.357Z,11.90
2023-10-10T18:32:02.144Z,10.70
2023-10-10T18:35:07.250Z,10.93
2023-10-10T18:38:11.712Z,13.23
2023-10-10T18:41:15.412Z,14.43
2023-10-10T18:44:20.774Z,15.00
2023-10-10T18:47:25.683Z,15.10
2023-10-10T18:50:30.674Z,14.10
2023-10-10T18:53:37.717Z,14.70
2023-10-10T18:56:42.178Z,14.53
2023-10-10T18:59:48.261Z,13.50
2023-10-10T19:02:51.532Z,14.67
2023-10-10T19:05:55.238Z,13.87
2023-10-10T19:09:01.431Z,14.07
2023-10-10T19:12:06.734Z,17.43
2023-10-10T19:15:14.173Z,15.60
2023-10-10T19:18:18.750Z,14.50
2023-10-10T19:21:25.086Z,13.37
2023-10-10T19:24:29.403Z,16.87
2023-10-10T19:27:32.467Z,14.97
2023-10-10T19:30:40.652Z,15.00
2023-10-10T19:33:43.985Z,17.87
2023-10-10T19:36:48.808Z,16.47
2023-10-10T19:39:52.426Z,16.43
2023-10-10T19:42:55.875Z,16.70
2023-10-10T19:46:00.479Z,15.80
2023-10-10T19:49:05.862Z,15.93
2023-10-10T19:52:12.344Z,15.57
2023-10-10T19:55:22.398Z,14.27
2023-10-10T19:58:26.337Z,14.77
2023-10-10T20:01:34.784Z,14.70
2023-10-10T20:04:39.626Z,14.20
2023-10-10T20:07:48.314Z,13.83
2023-10-10T20:10:51.891Z,12.63
2023-10-10T20:13:55.324Z,12.67
2023-10-10T20:17:02.352Z,14.07
2023-10-10T20:20:07.152Z,14.07
2023-10-10T20:23:11.101Z,11.63
2023-10-10T20:26:19.034Z,11.90
2023-10-10T20:29:29.970Z,11.37
2023-10-10T20:32:35.965Z,11.27
2023-10-10T20:35:39.145Z,10.37
2023-10-10T20:38:43.998Z,9.13
2023-10-10T20:41:49.491Z,10.77
2023-10-10T20:44:52.810Z,10.70
2023-10-10T20:47:57.939Z,9.90
2023-10-10T20:51:03.947Z,12.47
2023-10-10T20:54:07.918Z,10.27
2023-10-10T20:57:11.124Z,12.83
2023-10-10T21:00:21.680Z,12.37
2023-10-10T21:03:26.875Z,13.00
2023-10-10T21:06:30.150Z,12.53
2023-10-10T21:09:37.116Z,14.40
2023-10-10T21:12:41.426Z,14.10
2023-10-10T21:15:45.586Z,15.17
2023-10-10T21:18:50.188Z,16.40
2023-10-10T21:21:55.747Z,17.30
2023-10-10T21:25:01.115Z,18.80
2023-10-10T21:28:08.402Z,19.93
2023-10-10T21:31:12.136Z,19.43
2023-10-10T21:34:16.801Z,16.63
2023-10-10T21:37:19.925Z,16.60
2023-10-10T21:40:23.327Z,18.20
2023-10-10T21:43:26.442Z,18.57
2023-10-10T21:46:29.496Z,15.10
2023-10-10T21:49:34.226Z,15.20
2023-10-10T21:52:37.472Z,15.13
2023-10-10T21:55:41.988Z,13.57
2023-10-10T21:58:45.132Z,14.00
2023-10-10T22:01:52.788Z,15.13
2023-10-10T22:05:01.620Z,13.70
2023-10-10T22:08:07.714Z,14.30
2023-10-10T22:11:13.725Z,15.20
2023-10-10T22:14:16.731Z,14.60
2023-10-10T22:17:22.827Z,14.70
2023-10-10T22:20:30.205Z,14.40
2023-10-10T22:23:33.317Z,14.03
2023-10-10T22:26:36.509Z,14.23
2023-10-10T22:29:39.623Z,14.00
2023-10-10T22:32:43.864Z,15.20
2023-10-10T22:35:51.063Z,14.47
2023-10-10T22:38:54.220Z,13.70
2023-10-10T22:41:58.374Z,12.70
2023-10-10T22:45:01.739Z,14.90
2023-10-10T22:48:09.232Z,14.27
2023-10-10T22:51:14.864Z,13.90
2023-10-10T22:54:18.076Z,14.87
2023-10-10T22:57:21.226Z,16.70
2023-10-10T23:00:30.151Z,17.80
2023-10-10T23:03:37.166Z,17.73
2023-10-10T23:06:43.108Z,17.43
2023-10-10T23:09:48.489Z,17.23
2023-10-10T23:12:52.487Z,17.90
2023-10-10T23:15:55.720Z,19.23
2023-10-10T23:18:59.205Z,23.07
2023-10-10T23:22:08.867Z,20.00
2023-10-10T23:25:13.622Z,21.93
2023-10-10T23:28:16.674Z,20.57
2023-10-10T23:31:20.090Z,20.10
2023-10-10T23:34:23.508Z,19.90
2023-10-10T23:37:30.897Z,17.80
2023-10-10T23:40:40.226Z,17.03
2023-10-10T23:43:47.407Z,16.23
2023-10-10T23:46:50.592Z,20.13
2023-10-10T23:49:53.962Z,22.60
2023-10-10T23:53:03.220Z,20.00
2023-10-10T23:56:09.577Z,18.77
2023-10-10T23:59:12.642Z,16.17
